Llanbrynmair, United Kingdom
Current Conditions -  °F | °C
As of 8:50 PM on Friday 26 Dec 2014 (Local Time) from EGOS Reporting Station
Moderate Snow Moderate Snow  
Wind Chill: 24°   Ceiling: 300
Heat Index: 32°   Visibility: 0.75mi
Dew Point: 32°   Wind: 9mph
Humidity: 100%   Direction: 30°NNE
Pressure: 29.68"   Gusts: NA
Location:  52.61°N, 3.63°W
Report Text: EGOS 262050Z AUTO 03008KT 1200 SN OVC003/// 00/00 Q1005
Loading
Personal Weather Stations






























Interactive Weather Map New forecast layout! Learn more

10-Day Weather Forecast

Advertisements
Track Severe Weather on mobile